sensor_id;sensor_type;location;lat;lon;timestamp;P1;durP1;ratioP1;P2;durP2;ratioP2
7074;SDS011;3578;51.568;6.932;2023-02-28T00:01:44;4.33;;;4.03;;
7074;SDS011;3578;51.568;6.932;2023-02-28T00:04:13;14.00;;;4.00;;
7074;SDS011;3578;51.568;6.932;2023-02-28T00:06:41;4.63;;;4.07;;
7074;SDS011;3578;51.568;6.932;2023-02-28T00:09:09;7.20;;;3.90;;
7074;SDS011;3578;51.568;6.932;2023-02-28T00:11:36;7.03;;;4.27;;
7074;SDS011;3578;51.568;6.932;2023-02-28T00:14:03;9.70;;;4.27;;
7074;SDS011;3578;51.568;6.932;2023-02-28T00:16:30;10.90;;;4.50;;
7074;SDS011;3578;51.568;6.932;2023-02-28T00:18:57;5.17;;;4.50;;
7074;SDS011;3578;51.568;6.932;2023-02-28T00:21:24;15.23;;;5.57;;
7074;SDS011;3578;51.568;6.932;2023-02-28T00:23:51;10.50;;;4.40;;
7074;SDS011;3578;51.568;6.932;2023-02-28T00:26:19;11.70;;;4.30;;
7074;SDS011;3578;51.568;6.932;2023-02-28T00:28:46;10.53;;;4.13;;
7074;SDS011;3578;51.568;6.932;2023-02-28T00:31:13;6.60;;;3.97;;
7074;SDS011;3578;51.568;6.932;2023-02-28T00:33:40;7.17;;;3.53;;
7074;SDS011;3578;51.568;6.932;2023-02-28T00:36:08;12.30;;;4.40;;
7074;SDS011;3578;51.568;6.932;2023-02-28T00:38:37;19.63;;;5.03;;
7074;SDS011;3578;51.568;6.932;2023-02-28T00:41:05;5.03;;;3.60;;
7074;SDS011;3578;51.568;6.932;2023-02-28T00:43:34;5.70;;;3.70;;
7074;SDS011;3578;51.568;6.932;2023-02-28T00:46:03;6.43;;;3.40;;
7074;SDS011;3578;51.568;6.932;2023-02-28T00:48:30;10.37;;;3.80;;
7074;SDS011;3578;51.568;6.932;2023-02-28T00:50:58;3.93;;;3.63;;
7074;SDS011;3578;51.568;6.932;2023-02-28T00:53:24;12.73;;;3.93;;
7074;SDS011;3578;51.568;6.932;2023-02-28T00:55:51;10.13;;;3.53;;
7074;SDS011;3578;51.568;6.932;2023-02-28T00:58:18;4.80;;;3.40;;
7074;SDS011;3578;51.568;6.932;2023-02-28T01:00:47;11.97;;;4.67;;
7074;SDS011;3578;51.568;6.932;2023-02-28T01:03:14;4.97;;;3.20;;
7074;SDS011;3578;51.568;6.932;2023-02-28T01:05:42;7.30;;;4.10;;
7074;SDS011;3578;51.568;6.932;2023-02-28T01:08:10;6.67;;;3.33;;
7074;SDS011;3578;51.568;6.932;2023-02-28T01:10:37;12.33;;;4.70;;
7074;SDS011;3578;51.568;6.932;2023-02-28T01:13:04;6.80;;;4.00;;
7074;SDS011;3578;51.568;6.932;2023-02-28T01:15:31;10.60;;;3.80;;
7074;SDS011;3578;51.568;6.932;2023-02-28T01:18:00;5.30;;;4.10;;
7074;SDS011;3578;51.568;6.932;2023-02-28T01:20:27;4.90;;;3.03;;
7074;SDS011;3578;51.568;6.932;2023-02-28T01:22:54;17.53;;;4.70;;
7074;SDS011;3578;51.568;6.932;2023-02-28T01:25:21;8.57;;;4.10;;
7074;SDS011;3578;51.568;6.932;2023-02-28T01:27:48;4.13;;;3.50;;
7074;SDS011;3578;51.568;6.932;2023-02-28T01:30:15;7.97;;;3.67;;
7074;SDS011;3578;51.568;6.932;2023-02-28T01:32:43;4.10;;;3.53;;
7074;SDS011;3578;51.568;6.932;2023-02-28T01:35:11;3.80;;;3.40;;
7074;SDS011;3578;51.568;6.932;2023-02-28T01:37:38;13.00;;;5.30;;
7074;SDS011;3578;51.568;6.932;2023-02-28T01:40:06;8.70;;;3.43;;
7074;SDS011;3578;51.568;6.932;2023-02-28T01:42:34;6.43;;;4.30;;
7074;SDS011;3578;51.568;6.932;2023-02-28T01:45:04;5.40;;;3.23;;
7074;SDS011;3578;51.568;6.932;2023-02-28T01:47:46;3.20;;;3.00;;
7074;SDS011;3578;51.568;6.932;2023-02-28T01:50:19;4.60;;;2.97;;
7074;SDS011;3578;51.568;6.932;2023-02-28T01:52:49;3.33;;;2.80;;
7074;SDS011;3578;51.568;6.932;2023-02-28T01:55:18;3.77;;;3.10;;
7074;SDS011;3578;51.568;6.932;2023-02-28T01:57:46;6.43;;;3.30;;
7074;SDS011;3578;51.568;6.932;2023-02-28T02:00:18;5.90;;;3.87;;
7074;SDS011;3578;51.568;6.932;2023-02-28T02:02:50;7.03;;;3.43;;
7074;SDS011;3578;51.568;6.932;2023-02-28T02:05:22;4.37;;;3.77;;
7074;SDS011;3578;51.568;6.932;2023-02-28T02:07:52;6.13;;;3.87;;
7074;SDS011;3578;51.568;6.932;2023-02-28T02:10:24;4.73;;;3.37;;
7074;SDS011;3578;51.568;6.932;2023-02-28T02:13:01;6.67;;;3.37;;
7074;SDS011;3578;51.568;6.932;2023-02-28T02:16:04;5.67;;;3.00;;
7074;SDS011;3578;51.568;6.932;2023-02-28T02:18:50;3.50;;;3.20;;
7074;SDS011;3578;51.568;6.932;2023-02-28T02:21:29;6.30;;;3.53;;
7074;SDS011;3578;51.568;6.932;2023-02-28T02:37:15;3.90;;;3.60;;
7074;SDS011;3578;51.568;6.932;2023-02-28T02:39:58;3.40;;;3.20;;
7074;SDS011;3578;51.568;6.932;2023-02-28T02:42:35;3.70;;;3.40;;
7074;SDS011;3578;51.568;6.932;2023-02-28T02:45:09;3.83;;;3.43;;
7074;SDS011;3578;51.568;6.932;2023-02-28T02:47:42;4.00;;;3.60;;
7074;SDS011;3578;51.568;6.932;2023-02-28T02:50:14;5.00;;;3.80;;
7074;SDS011;3578;51.568;6.932;2023-02-28T02:52:49;4.73;;;4.30;;
7074;SDS011;3578;51.568;6.932;2023-02-28T02:55:21;3.93;;;3.53;;
7074;SDS011;3578;51.568;6.932;2023-02-28T02:57:50;4.17;;;3.77;;
7074;SDS011;3578;51.568;6.932;2023-02-28T03:00:23;5.47;;;4.03;;
7074;SDS011;3578;51.568;6.932;2023-02-28T03:02:54;4.90;;;4.40;;
7074;SDS011;3578;51.568;6.932;2023-02-28T03:05:25;4.50;;;4.20;;
7074;SDS011;3578;51.568;6.932;2023-02-28T03:07:56;4.63;;;4.13;;
7074;SDS011;3578;51.568;6.932;2023-02-28T03:10:27;5.00;;;4.60;;
7074;SDS011;3578;51.568;6.932;2023-02-28T03:13:09;4.20;;;3.80;;
7074;SDS011;3578;51.568;6.932;2023-02-28T03:15:55;4.70;;;4.40;;
7074;SDS011;3578;51.568;6.932;2023-02-28T03:18:40;4.57;;;4.27;;
7074;SDS011;3578;51.568;6.932;2023-02-28T03:21:21;7.20;;;4.37;;
7074;SDS011;3578;51.568;6.932;2023-02-28T03:23:56;6.00;;;4.30;;
7074;SDS011;3578;51.568;6.932;2023-02-28T03:26:30;4.43;;;4.10;;
7074;SDS011;3578;51.568;6.932;2023-02-28T03:29:02;5.20;;;4.30;;
7074;SDS011;3578;51.568;6.932;2023-02-28T03:31:38;4.83;;;4.43;;
7074;SDS011;3578;51.568;6.932;2023-02-28T03:34:10;5.43;;;4.40;;
7074;SDS011;3578;51.568;6.932;2023-02-28T03:36:45;5.00;;;4.50;;
7074;SDS011;3578;51.568;6.932;2023-02-28T03:39:18;4.93;;;4.43;;
7074;SDS011;3578;51.568;6.932;2023-02-28T03:41:51;4.53;;;4.13;;
7074;SDS011;3578;51.568;6.932;2023-02-28T03:44:24;4.90;;;4.47;;
7074;SDS011;3578;51.568;6.932;2023-02-28T03:46:56;4.63;;;4.23;;
7074;SDS011;3578;51.568;6.932;2023-02-28T03:49:30;5.13;;;4.77;;
7074;SDS011;3578;51.568;6.932;2023-02-28T03:52:03;5.70;;;4.67;;
7074;SDS011;3578;51.568;6.932;2023-02-28T03:54:33;4.93;;;4.40;;
7074;SDS011;3578;51.568;6.932;2023-02-28T03:57:07;4.97;;;4.23;;
7074;SDS011;3578;51.568;6.932;2023-02-28T03:59:42;4.70;;;4.30;;
7074;SDS011;3578;51.568;6.932;2023-02-28T04:02:13;4.27;;;3.93;;
7074;SDS011;3578;51.568;6.932;2023-02-28T04:04:40;4.97;;;4.07;;
7074;SDS011;3578;51.568;6.932;2023-02-28T04:07:11;7.70;;;5.27;;
7074;SDS011;3578;51.568;6.932;2023-02-28T04:09:38;7.43;;;4.57;;
7074;SDS011;3578;51.568;6.932;2023-02-28T04:12:05;4.83;;;4.20;;
7074;SDS011;3578;51.568;6.932;2023-02-28T04:14:33;5.97;;;5.47;;
7074;SDS011;3578;51.568;6.932;2023-02-28T04:17:00;5.10;;;4.20;;
7074;SDS011;3578;51.568;6.932;2023-02-28T04:19:27;5.10;;;4.70;;
7074;SDS011;3578;51.568;6.932;2023-02-28T04:21:54;5.27;;;4.80;;
7074;SDS011;3578;51.568;6.932;2023-02-28T04:24:23;4.50;;;4.20;;
7074;SDS011;3578;51.568;6.932;2023-02-28T04:26:53;4.70;;;4.30;;
7074;SDS011;3578;51.568;6.932;2023-02-28T04:29:23;5.03;;;4.43;;
7074;SDS011;3578;51.568;6.932;2023-02-28T04:31:52;9.17;;;4.50;;
7074;SDS011;3578;51.568;6.932;2023-02-28T04:34:20;5.07;;;4.37;;
7074;SDS011;3578;51.568;6.932;2023-02-28T04:36:48;4.57;;;4.27;;
7074;SDS011;3578;51.568;6.932;2023-02-28T04:39:15;4.57;;;4.17;;
7074;SDS011;3578;51.568;6.932;2023-02-28T04:41:44;4.23;;;3.83;;
7074;SDS011;3578;51.568;6.932;2023-02-28T04:44:12;6.53;;;4.20;;
7074;SDS011;3578;51.568;6.932;2023-02-28T04:46:39;4.00;;;3.67;;
7074;SDS011;3578;51.568;6.932;2023-02-28T04:49:06;4.10;;;3.80;;
7074;SDS011;3578;51.568;6.932;2023-02-28T04:51:34;3.50;;;3.30;;
7074;SDS011;3578;51.568;6.932;2023-02-28T04:54:01;7.67;;;3.47;;
7074;SDS011;3578;51.568;6.932;2023-02-28T04:56:28;3.57;;;3.33;;
7074;SDS011;3578;51.568;6.932;2023-02-28T04:58:56;4.17;;;3.77;;
7074;SDS011;3578;51.568;6.932;2023-02-28T05:01:24;4.37;;;4.10;;
7074;SDS011;3578;51.568;6.932;2023-02-28T05:03:55;5.40;;;3.67;;
7074;SDS011;3578;51.568;6.932;2023-02-28T05:06:25;3.30;;;3.00;;
7074;SDS011;3578;51.568;6.932;2023-02-28T05:08:53;4.13;;;3.83;;
7074;SDS011;3578;51.568;6.932;2023-02-28T05:11:22;4.73;;;3.80;;
7074;SDS011;3578;51.568;6.932;2023-02-28T05:13:52;4.03;;;3.73;;
7074;SDS011;3578;51.568;6.932;2023-02-28T05:16:21;6.40;;;3.50;;
7074;SDS011;3578;51.568;6.932;2023-02-28T05:18:48;3.60;;;3.30;;
7074;SDS011;3578;51.568;6.932;2023-02-28T05:21:21;3.40;;;3.10;;
7074;SDS011;3578;51.568;6.932;2023-02-28T05:23:55;3.13;;;2.90;;
7074;SDS011;3578;51.568;6.932;2023-02-28T05:26:23;3.93;;;3.60;;
7074;SDS011;3578;51.568;6.932;2023-02-28T05:28:51;4.57;;;3.50;;
7074;SDS011;3578;51.568;6.932;2023-02-28T05:31:19;4.03;;;3.63;;
7074;SDS011;3578;51.568;6.932;2023-02-28T05:33:48;5.33;;;3.70;;
7074;SDS011;3578;51.568;6.932;2023-02-28T05:36:16;4.27;;;3.87;;
7074;SDS011;3578;51.568;6.932;2023-02-28T05:38:45;6.53;;;3.23;;
7074;SDS011;3578;51.568;6.932;2023-02-28T05:41:14;4.00;;;3.70;;
7074;SDS011;3578;51.568;6.932;2023-02-28T05:43:41;9.67;;;3.50;;
7074;SDS011;3578;51.568;6.932;2023-02-28T05:46:08;10.50;;;4.10;;
7074;SDS011;3578;51.568;6.932;2023-02-28T05:48:39;7.83;;;3.80;;
7074;SDS011;3578;51.568;6.932;2023-02-28T05:51:07;7.33;;;3.83;;
7074;SDS011;3578;51.568;6.932;2023-02-28T05:53:35;3.73;;;3.33;;
7074;SDS011;3578;51.568;6.932;2023-02-28T05:56:03;5.40;;;4.10;;
7074;SDS011;3578;51.568;6.932;2023-02-28T05:58:30;5.80;;;3.37;;
7074;SDS011;3578;51.568;6.932;2023-02-28T06:00:58;7.70;;;4.23;;
7074;SDS011;3578;51.568;6.932;2023-02-28T06:03:27;4.73;;;4.20;;
7074;SDS011;3578;51.568;6.932;2023-02-28T06:05:55;5.27;;;3.50;;
7074;SDS011;3578;51.568;6.932;2023-02-28T06:08:22;7.60;;;4.77;;
7074;SDS011;3578;51.568;6.932;2023-02-28T06:10:49;8.13;;;4.30;;
7074;SDS011;3578;51.568;6.932;2023-02-28T06:13:16;6.77;;;4.57;;
7074;SDS011;3578;51.568;6.932;2023-02-28T06:15:43;7.00;;;4.13;;
7074;SDS011;3578;51.568;6.932;2023-02-28T06:18:10;8.20;;;3.90;;
7074;SDS011;3578;51.568;6.932;2023-02-28T06:20:36;5.90;;;4.00;;
7074;SDS011;3578;51.568;6.932;2023-02-28T06:23:05;9.00;;;4.20;;
7074;SDS011;3578;51.568;6.932;2023-02-28T06:25:32;11.83;;;5.30;;
7074;SDS011;3578;51.568;6.932;2023-02-28T06:27:59;4.27;;;3.87;;
7074;SDS011;3578;51.568;6.932;2023-02-28T06:30:26;4.63;;;4.10;;
7074;SDS011;3578;51.568;6.932;2023-02-28T06:32:56;6.50;;;4.60;;
7074;SDS011;3578;51.568;6.932;2023-02-28T06:35:23;7.13;;;4.63;;
7074;SDS011;3578;51.568;6.932;2023-02-28T06:37:49;6.40;;;4.03;;
7074;SDS011;3578;51.568;6.932;2023-02-28T06:40:18;8.47;;;5.00;;
7074;SDS011;3578;51.568;6.932;2023-02-28T06:42:45;5.90;;;4.77;;
7074;SDS011;3578;51.568;6.932;2023-02-28T06:45:12;10.10;;;4.53;;
7074;SDS011;3578;51.568;6.932;2023-02-28T06:47:39;7.37;;;4.83;;
7074;SDS011;3578;51.568;6.932;2023-02-28T06:50:08;7.60;;;5.07;;
7074;SDS011;3578;51.568;6.932;2023-02-28T06:52:37;5.27;;;4.67;;
7074;SDS011;3578;51.568;6.932;2023-02-28T06:55:05;7.77;;;5.10;;
7074;SDS011;3578;51.568;6.932;2023-02-28T06:57:35;8.27;;;4.60;;
7074;SDS011;3578;51.568;6.932;2023-02-28T07:00:03;5.20;;;4.70;;
7074;SDS011;3578;51.568;6.932;2023-02-28T07:02:34;5.27;;;4.77;;
7074;SDS011;3578;51.568;6.932;2023-02-28T07:05:02;8.73;;;4.70;;
7074;SDS011;3578;51.568;6.932;2023-02-28T07:07:30;10.90;;;4.17;;
7074;SDS011;3578;51.568;6.932;2023-02-28T07:09:57;15.33;;;4.40;;
7074;SDS011;3578;51.568;6.932;2023-02-28T07:12:24;13.93;;;4.80;;
7074;SDS011;3578;51.568;6.932;2023-02-28T07:14:53;11.20;;;5.30;;
7074;SDS011;3578;51.568;6.932;2023-02-28T07:17:20;8.37;;;4.27;;
7074;SDS011;3578;51.568;6.932;2023-02-28T07:19:47;8.73;;;4.43;;
7074;SDS011;3578;51.568;6.932;2023-02-28T07:22:14;7.73;;;4.90;;
7074;SDS011;3578;51.568;6.932;2023-02-28T07:24:41;4.77;;;4.10;;
7074;SDS011;3578;51.568;6.932;2023-02-28T07:27:08;4.60;;;4.30;;
7074;SDS011;3578;51.568;6.932;2023-02-28T07:29:35;7.00;;;4.33;;
7074;SDS011;3578;51.568;6.932;2023-02-28T07:32:04;7.17;;;4.50;;
7074;SDS011;3578;51.568;6.932;2023-02-28T07:34:31;10.00;;;3.70;;
7074;SDS011;3578;51.568;6.932;2023-02-28T07:36:58;9.40;;;4.13;;
7074;SDS011;3578;51.568;6.932;2023-02-28T07:39:28;7.73;;;4.40;;
7074;SDS011;3578;51.568;6.932;2023-02-28T07:41:55;11.07;;;4.70;;
7074;SDS011;3578;51.568;6.932;2023-02-28T07:44:22;9.00;;;4.00;;
7074;SDS011;3578;51.568;6.932;2023-02-28T07:46:49;5.60;;;3.80;;
7074;SDS011;3578;51.568;6.932;2023-02-28T07:49:19;8.90;;;4.50;;
7074;SDS011;3578;51.568;6.932;2023-02-28T07:51:46;4.60;;;4.10;;
7074;SDS011;3578;51.568;6.932;2023-02-28T07:54:17;7.00;;;3.77;;
7074;SDS011;3578;51.568;6.932;2023-02-28T07:56:44;7.13;;;4.73;;
7074;SDS011;3578;51.568;6.932;2023-02-28T07:59:11;5.47;;;4.40;;
7074;SDS011;3578;51.568;6.932;2023-02-28T08:01:38;4.23;;;3.93;;
7074;SDS011;3578;51.568;6.932;2023-02-28T08:04:05;4.13;;;3.73;;
7074;SDS011;3578;51.568;6.932;2023-02-28T08:06:34;4.27;;;3.73;;
7074;SDS011;3578;51.568;6.932;2023-02-28T08:09:02;4.10;;;3.77;;
7074;SDS011;3578;51.568;6.932;2023-02-28T08:11:29;4.00;;;3.70;;
7074;SDS011;3578;51.568;6.932;2023-02-28T08:13:56;4.83;;;4.43;;
7074;SDS011;3578;51.568;6.932;2023-02-28T08:16:23;5.50;;;4.20;;
7074;SDS011;3578;51.568;6.932;2023-02-28T08:18:50;7.73;;;4.03;;
7074;SDS011;3578;51.568;6.932;2023-02-28T08:21:17;5.47;;;4.10;;
7074;SDS011;3578;51.568;6.932;2023-02-28T08:23:47;6.70;;;4.20;;
7074;SDS011;3578;51.568;6.932;2023-02-28T08:26:15;5.13;;;4.30;;
7074;SDS011;3578;51.568;6.932;2023-02-28T08:28:42;7.43;;;4.37;;
7074;SDS011;3578;51.568;6.932;2023-02-28T08:31:09;7.03;;;3.70;;
7074;SDS011;3578;51.568;6.932;2023-02-28T08:33:39;23.33;;;4.80;;
7074;SDS011;3578;51.568;6.932;2023-02-28T08:36:07;8.90;;;3.50;;
7074;SDS011;3578;51.568;6.932;2023-02-28T08:38:35;7.23;;;3.07;;
7074;SDS011;3578;51.568;6.932;2023-02-28T08:41:05;8.47;;;3.50;;
7074;SDS011;3578;51.568;6.932;2023-02-28T08:43:36;4.17;;;2.73;;
7074;SDS011;3578;51.568;6.932;2023-02-28T08:46:04;14.77;;;2.97;;
7074;SDS011;3578;51.568;6.932;2023-02-28T08:48:33;8.63;;;2.60;;
7074;SDS011;3578;51.568;6.932;2023-02-28T08:51:03;3.43;;;2.50;;
7074;SDS011;3578;51.568;6.932;2023-02-28T08:53:34;21.10;;;3.80;;
7074;SDS011;3578;51.568;6.932;2023-02-28T08:56:02;13.13;;;2.80;;
7074;SDS011;3578;51.568;6.932;2023-02-28T08:58:33;2.30;;;2.23;;
7074;SDS011;3578;51.568;6.932;2023-02-28T09:01:06;9.23;;;2.90;;
7074;SDS011;3578;51.568;6.932;2023-02-28T09:03:35;16.60;;;3.90;;
7074;SDS011;3578;51.568;6.932;2023-02-28T09:06:03;15.23;;;3.33;;
7074;SDS011;3578;51.568;6.932;2023-02-28T09:08:31;9.37;;;3.10;;
7074;SDS011;3578;51.568;6.932;2023-02-28T09:10:58;3.60;;;2.43;;
7074;SDS011;3578;51.568;6.932;2023-02-28T09:13:26;2.97;;;2.10;;
7074;SDS011;3578;51.568;6.932;2023-02-28T09:15:54;5.70;;;2.00;;
7074;SDS011;3578;51.568;6.932;2023-02-28T09:18:24;2.63;;;1.90;;
7074;SDS011;3578;51.568;6.932;2023-02-28T09:20:52;12.47;;;2.67;;
7074;SDS011;3578;51.568;6.932;2023-02-28T09:23:19;9.93;;;2.07;;
7074;SDS011;3578;51.568;6.932;2023-02-28T09:25:47;2.30;;;1.80;;
7074;SDS011;3578;51.568;6.932;2023-02-28T09:28:15;5.77;;;2.10;;
7074;SDS011;3578;51.568;6.932;2023-02-28T09:30:45;4.20;;;1.93;;
7074;SDS011;3578;51.568;6.932;2023-02-28T09:33:14;6.73;;;2.53;;
7074;SDS011;3578;51.568;6.932;2023-02-28T09:35:45;6.10;;;2.80;;
7074;SDS011;3578;51.568;6.932;2023-02-28T09:38:13;8.87;;;2.43;;
7074;SDS011;3578;51.568;6.932;2023-02-28T09:40:42;2.10;;;1.70;;
7074;SDS011;3578;51.568;6.932;2023-02-28T09:43:15;7.10;;;1.97;;
7074;SDS011;3578;51.568;6.932;2023-02-28T09:45:46;3.33;;;1.93;;
7074;SDS011;3578;51.568;6.932;2023-02-28T09:48:24;2.23;;;1.80;;
7074;SDS011;3578;51.568;6.932;2023-02-28T09:50:59;2.90;;;1.80;;
7074;SDS011;3578;51.568;6.932;2023-02-28T09:53:29;3.70;;;1.87;;
7074;SDS011;3578;51.568;6.932;2023-02-28T09:56:01;5.03;;;2.53;;
7074;SDS011;3578;51.568;6.932;2023-02-28T09:58:35;1.73;;;1.63;;
7074;SDS011;3578;51.568;6.932;2023-02-28T10:01:10;4.33;;;2.00;;
7074;SDS011;3578;51.568;6.932;2023-02-28T10:03:48;4.77;;;1.73;;
7074;SDS011;3578;51.568;6.932;2023-02-28T10:06:21;4.00;;;2.40;;
7074;SDS011;3578;51.568;6.932;2023-02-28T10:08:57;15.43;;;2.80;;
7074;SDS011;3578;51.568;6.932;2023-02-28T10:11:32;5.87;;;2.20;;
7074;SDS011;3578;51.568;6.932;2023-02-28T10:14:02;5.17;;;2.10;;
7074;SDS011;3578;51.568;6.932;2023-02-28T10:16:38;2.20;;;2.10;;
7074;SDS011;3578;51.568;6.932;2023-02-28T10:19:12;5.77;;;2.03;;
7074;SDS011;3578;51.568;6.932;2023-02-28T10:21:46;4.93;;;2.10;;
7074;SDS011;3578;51.568;6.932;2023-02-28T10:24:23;50.63;;;4.70;;
7074;SDS011;3578;51.568;6.932;2023-02-28T10:26:59;1.90;;;1.80;;
7074;SDS011;3578;51.568;6.932;2023-02-28T10:29:32;4.80;;;2.37;;
7074;SDS011;3578;51.568;6.932;2023-02-28T10:32:01;4.27;;;2.60;;
7074;SDS011;3578;51.568;6.932;2023-02-28T10:34:29;7.80;;;1.80;;
7074;SDS011;3578;51.568;6.932;2023-02-28T10:36:57;8.23;;;2.23;;
7074;SDS011;3578;51.568;6.932;2023-02-28T10:39:38;6.50;;;2.40;;
7074;SDS011;3578;51.568;6.932;2023-02-28T10:42:21;6.13;;;3.10;;
7074;SDS011;3578;51.568;6.932;2023-02-28T10:45:04;4.33;;;2.50;;
7074;SDS011;3578;51.568;6.932;2023-02-28T10:47:40;2.50;;;2.30;;
7074;SDS011;3578;51.568;6.932;2023-02-28T10:50:27;11.93;;;2.60;;
7074;SDS011;3578;51.568;6.932;2023-02-28T10:53:05;4.80;;;2.40;;
7074;SDS011;3578;51.568;6.932;2023-02-28T10:55:57;2.20;;;2.10;;
7074;SDS011;3578;51.568;6.932;2023-02-28T10:58:27;2.67;;;1.90;;
7074;SDS011;3578;51.568;6.932;2023-02-28T11:00:57;2.30;;;2.03;;
7074;SDS011;3578;51.568;6.932;2023-02-28T11:03:30;4.93;;;2.80;;
7074;SDS011;3578;51.568;6.932;2023-02-28T11:06:04;6.73;;;2.13;;
7074;SDS011;3578;51.568;6.932;2023-02-28T11:08:34;2.33;;;2.00;;
7074;SDS011;3578;51.568;6.932;2023-02-28T11:11:09;4.13;;;2.60;;
7074;SDS011;3578;51.568;6.932;2023-02-28T11:13:36;2.67;;;1.97;;
7074;SDS011;3578;51.568;6.932;2023-02-28T11:16:04;3.20;;;2.00;;
7074;SDS011;3578;51.568;6.932;2023-02-28T11:18:37;4.47;;;2.40;;
7074;SDS011;3578;51.568;6.932;2023-02-28T11:21:08;2.40;;;2.20;;
7074;SDS011;3578;51.568;6.932;2023-02-28T11:23:42;8.33;;;2.30;;
7074;SDS011;3578;51.568;6.932;2023-02-28T11:26:10;72.43;;;6.70;;
7074;SDS011;3578;51.568;6.932;2023-02-28T11:28:38;2.40;;;1.80;;
7074;SDS011;3578;51.568;6.932;2023-02-28T11:33:55;5.07;;;2.50;;
7074;SDS011;3578;51.568;6.932;2023-02-28T11:36:23;30.17;;;3.10;;
7074;SDS011;3578;51.568;6.932;2023-02-28T11:38:54;24.77;;;2.73;;
7074;SDS011;3578;51.568;6.932;2023-02-28T11:41:30;11.27;;;2.27;;
7074;SDS011;3578;51.568;6.932;2023-02-28T11:44:19;13.80;;;2.83;;
7074;SDS011;3578;51.568;6.932;2023-02-28T11:47:00;6.90;;;2.50;;
7074;SDS011;3578;51.568;6.932;2023-02-28T11:49:36;17.00;;;2.90;;
7074;SDS011;3578;51.568;6.932;2023-02-28T11:52:18;2.10;;;2.00;;
7074;SDS011;3578;51.568;6.932;2023-02-28T11:54:59;17.77;;;3.00;;
7074;SDS011;3578;51.568;6.932;2023-02-28T11:57:44;9.20;;;2.30;;
7074;SDS011;3578;51.568;6.932;2023-02-28T12:00:40;6.70;;;2.50;;
7074;SDS011;3578;51.568;6.932;2023-02-28T12:03:39;4.43;;;2.20;;
7074;SDS011;3578;51.568;6.932;2023-02-28T12:06:20;13.83;;;2.80;;
7074;SDS011;3578;51.568;6.932;2023-02-28T12:09:00;2.40;;;2.20;;
7074;SDS011;3578;51.568;6.932;2023-02-28T12:11:40;7.70;;;2.90;;
7074;SDS011;3578;51.568;6.932;2023-02-28T12:14:28;9.57;;;2.20;;
7074;SDS011;3578;51.568;6.932;2023-02-28T12:17:23;3.07;;;2.07;;
7074;SDS011;3578;51.568;6.932;2023-02-28T12:20:05;3.50;;;2.27;;
7074;SDS011;3578;51.568;6.932;2023-02-28T12:22:50;4.30;;;2.70;;
7074;SDS011;3578;51.568;6.932;2023-02-28T12:28:27;4.73;;;3.03;;
7074;SDS011;3578;51.568;6.932;2023-02-28T12:31:00;3.27;;;2.60;;
7074;SDS011;3578;51.568;6.932;2023-02-28T12:33:33;9.83;;;3.60;;
7074;SDS011;3578;51.568;6.932;2023-02-28T12:36:05;4.90;;;2.20;;
7074;SDS011;3578;51.568;6.932;2023-02-28T12:38:39;7.87;;;2.17;;
7074;SDS011;3578;51.568;6.932;2023-02-28T12:41:12;6.10;;;2.30;;
7074;SDS011;3578;51.568;6.932;2023-02-28T12:43:43;3.10;;;2.30;;
7074;SDS011;3578;51.568;6.932;2023-02-28T12:46:15;3.50;;;2.37;;
7074;SDS011;3578;51.568;6.932;2023-02-28T12:48:49;2.47;;;2.27;;
7074;SDS011;3578;51.568;6.932;2023-02-28T12:51:21;4.63;;;2.23;;
7074;SDS011;3578;51.568;6.932;2023-02-28T12:53:54;2.30;;;2.10;;
7074;SDS011;3578;51.568;6.932;2023-02-28T12:56:33;9.20;;;2.33;;
7074;SDS011;3578;51.568;6.932;2023-02-28T12:59:13;8.23;;;2.30;;
7074;SDS011;3578;51.568;6.932;2023-02-28T13:01:56;15.97;;;3.03;;
7074;SDS011;3578;51.568;6.932;2023-02-28T13:04:51;2.60;;;2.40;;
7074;SDS011;3578;51.568;6.932;2023-02-28T13:07:51;9.90;;;2.67;;
7074;SDS011;3578;51.568;6.932;2023-02-28T13:11:02;6.63;;;1.80;;
7074;SDS011;3578;51.568;6.932;2023-02-28T13:13:30;3.77;;;2.47;;
7074;SDS011;3578;51.568;6.932;2023-02-28T13:15:59;11.40;;;2.37;;
7074;SDS011;3578;51.568;6.932;2023-02-28T13:18:31;10.13;;;2.20;;
7074;SDS011;3578;51.568;6.932;2023-02-28T13:21:02;16.37;;;2.53;;
7074;SDS011;3578;51.568;6.932;2023-02-28T13:23:56;5.33;;;2.13;;
7074;SDS011;3578;51.568;6.932;2023-02-28T13:29:50;7.10;;;2.50;;
7074;SDS011;3578;51.568;6.932;2023-02-28T13:32:20;6.27;;;2.20;;
7074;SDS011;3578;51.568;6.932;2023-02-28T13:35:14;11.77;;;2.90;;
7074;SDS011;3578;51.568;6.932;2023-02-28T13:38:13;7.40;;;2.70;;
7074;SDS011;3578;51.568;6.932;2023-02-28T13:40:48;2.60;;;2.40;;
7074;SDS011;3578;51.568;6.932;2023-02-28T13:43:16;2.53;;;2.17;;
7074;SDS011;3578;51.568;6.932;2023-02-28T13:48:38;3.03;;;2.67;;
7074;SDS011;3578;51.568;6.932;2023-02-28T13:54:06;3.83;;;2.33;;
7074;SDS011;3578;51.568;6.932;2023-02-28T13:56:47;2.50;;;2.00;;
7074;SDS011;3578;51.568;6.932;2023-02-28T13:59:25;4.83;;;2.07;;
7074;SDS011;3578;51.568;6.932;2023-02-28T14:02:07;4.13;;;2.30;;
7074;SDS011;3578;51.568;6.932;2023-02-28T14:05:00;2.70;;;1.83;;
7074;SDS011;3578;51.568;6.932;2023-02-28T14:07:33;12.93;;;3.63;;
7074;SDS011;3578;51.568;6.932;2023-02-28T14:10:15;41.20;;;6.33;;
7074;SDS011;3578;51.568;6.932;2023-02-28T14:12:52;36.00;;;5.43;;
7074;SDS011;3578;51.568;6.932;2023-02-28T14:18:25;14.47;;;2.73;;
7074;SDS011;3578;51.568;6.932;2023-02-28T14:21:10;39.90;;;4.57;;
7074;SDS011;3578;51.568;6.932;2023-02-28T14:23:46;6.73;;;2.83;;
7074;SDS011;3578;51.568;6.932;2023-02-28T14:33:08;8.27;;;2.80;;
7074;SDS011;3578;51.568;6.932;2023-02-28T14:36:03;14.97;;;3.53;;
7074;SDS011;3578;51.568;6.932;2023-02-28T14:38:39;10.17;;;2.73;;
7074;SDS011;3578;51.568;6.932;2023-02-28T14:41:15;20.33;;;3.30;;
7074;SDS011;3578;51.568;6.932;2023-02-28T14:43:48;6.60;;;2.50;;
7074;SDS011;3578;51.568;6.932;2023-02-28T14:46:17;2.30;;;2.20;;
7074;SDS011;3578;51.568;6.932;2023-02-28T14:48:46;3.33;;;2.30;;
7074;SDS011;3578;51.568;6.932;2023-02-28T14:51:19;3.80;;;2.57;;
7074;SDS011;3578;51.568;6.932;2023-02-28T14:53:49;12.87;;;2.80;;
7074;SDS011;3578;51.568;6.932;2023-02-28T14:56:26;5.20;;;2.53;;
7074;SDS011;3578;51.568;6.932;2023-02-28T14:58:56;3.30;;;3.00;;
7074;SDS011;3578;51.568;6.932;2023-02-28T15:01:24;2.40;;;2.20;;
7074;SDS011;3578;51.568;6.932;2023-02-28T15:04:02;4.70;;;3.10;;
7074;SDS011;3578;51.568;6.932;2023-02-28T15:06:32;10.33;;;3.10;;
7074;SDS011;3578;51.568;6.932;2023-02-28T15:09:06;4.73;;;3.13;;
7074;SDS011;3578;51.568;6.932;2023-02-28T15:11:41;7.53;;;2.80;;
7074;SDS011;3578;51.568;6.932;2023-02-28T15:14:13;9.30;;;2.80;;
7074;SDS011;3578;51.568;6.932;2023-02-28T15:16:45;2.53;;;2.30;;
7074;SDS011;3578;51.568;6.932;2023-02-28T15:19:19;4.13;;;2.60;;
7074;SDS011;3578;51.568;6.932;2023-02-28T15:21:51;9.13;;;2.80;;
7074;SDS011;3578;51.568;6.932;2023-02-28T15:24:26;2.90;;;2.20;;
7074;SDS011;3578;51.568;6.932;2023-02-28T15:27:02;4.00;;;2.50;;
7074;SDS011;3578;51.568;6.932;2023-02-28T15:29:34;2.57;;;2.37;;
7074;SDS011;3578;51.568;6.932;2023-02-28T15:32:21;3.70;;;2.50;;
7074;SDS011;3578;51.568;6.932;2023-02-28T15:34:54;9.70;;;2.87;;
7074;SDS011;3578;51.568;6.932;2023-02-28T15:37:33;2.97;;;2.30;;
7074;SDS011;3578;51.568;6.932;2023-02-28T15:40:10;2.40;;;2.20;;
7074;SDS011;3578;51.568;6.932;2023-02-28T15:42:41;3.13;;;2.93;;
7074;SDS011;3578;51.568;6.932;2023-02-28T15:45:28;7.60;;;2.87;;
7074;SDS011;3578;51.568;6.932;2023-02-28T15:48:02;7.50;;;2.90;;
7074;SDS011;3578;51.568;6.932;2023-02-28T15:50:30;4.03;;;3.13;;
7074;SDS011;3578;51.568;6.932;2023-02-28T15:52:58;3.97;;;2.70;;
7074;SDS011;3578;51.568;6.932;2023-02-28T15:55:28;5.60;;;3.23;;
7074;SDS011;3578;51.568;6.932;2023-02-28T15:57:56;5.23;;;2.90;;
7074;SDS011;3578;51.568;6.932;2023-02-28T16:00:28;4.80;;;2.70;;
7074;SDS011;3578;51.568;6.932;2023-02-28T16:02:57;9.80;;;2.83;;
7074;SDS011;3578;51.568;6.932;2023-02-28T16:05:25;5.77;;;3.20;;
7074;SDS011;3578;51.568;6.932;2023-02-28T16:07:56;3.00;;;2.70;;
7074;SDS011;3578;51.568;6.932;2023-02-28T16:10:26;2.93;;;2.57;;
7074;SDS011;3578;51.568;6.932;2023-02-28T16:12:55;7.83;;;2.60;;
7074;SDS011;3578;51.568;6.932;2023-02-28T16:15:24;4.40;;;2.87;;
7074;SDS011;3578;51.568;6.932;2023-02-28T16:17:54;4.60;;;2.80;;
7074;SDS011;3578;51.568;6.932;2023-02-28T16:20:23;3.00;;;2.70;;